createdAt,value
2022-11-19T00:01:30.005Z,100.00
2022-11-19T00:03:56.679Z,100.00
2022-11-19T00:06:26.018Z,100.00
2022-11-19T00:08:53.567Z,100.00
2022-11-19T00:11:41.680Z,100.00
2022-11-19T00:14:10.438Z,100.00
2022-11-19T00:16:37.066Z,100.00
2022-11-19T00:19:04.454Z,100.00
2022-11-19T00:21:31.299Z,100.00
2022-11-19T00:23:58.331Z,100.00
2022-11-19T00:26:25.161Z,100.00
2022-11-19T00:28:51.774Z,100.00
2022-11-19T00:31:18.852Z,100.00
2022-11-19T00:33:45.916Z,100.00
2022-11-19T00:36:15.139Z,100.00
2022-11-19T00:38:42.196Z,100.00
2022-11-19T00:41:09.321Z,100.00
2022-11-19T00:43:48.292Z,100.00
2022-11-19T00:46:30.714Z,100.00
2022-11-19T00:48:58.897Z,100.00
2022-11-19T00:51:28.514Z,100.00
2022-11-19T00:53:55.707Z,100.00
2022-11-19T00:56:24.591Z,100.00
2022-11-19T00:58:51.775Z,100.00
2022-11-19T01:01:20.244Z,100.00
2022-11-19T01:03:47.165Z,100.00
2022-11-19T01:06:19.033Z,100.00
2022-11-19T01:08:47.549Z,100.00
2022-11-19T01:11:24.114Z,100.00
2022-11-19T01:13:50.739Z,100.00
2022-11-19T01:16:19.163Z,100.00
2022-11-19T01:18:50.196Z,100.00
2022-11-19T01:21:18.911Z,100.00
2022-11-19T01:23:46.449Z,100.00
2022-11-19T01:26:14.525Z,100.00
2022-11-19T01:28:41.768Z,100.00
2022-11-19T01:31:12.079Z,100.00
2022-11-19T01:33:39.111Z,100.00
2022-11-19T01:36:14.711Z,100.00
2022-11-19T01:38:41.996Z,100.00
2022-11-19T01:41:09.292Z,100.00
2022-11-19T01:44:05.607Z,100.00
2022-11-19T01:46:35.320Z,100.00
2022-11-19T01:49:04.118Z,100.00
2022-11-19T01:51:35.673Z,100.00
2022-11-19T01:54:08.543Z,100.00
2022-11-19T01:56:35.685Z,100.00
2022-11-19T01:59:15.943Z,100.00
2022-11-19T02:01:44.628Z,100.00
2022-11-19T02:04:14.143Z,100.00
2022-11-19T02:06:42.050Z,100.00
2022-11-19T02:09:08.951Z,100.00
2022-11-19T02:11:57.484Z,100.00
2022-11-19T02:14:53.518Z,100.00
2022-11-19T02:17:40.063Z,100.00
2022-11-19T02:20:25.083Z,100.00
2022-11-19T02:23:19.743Z,100.00
2022-11-19T02:26:05.070Z,100.00
2022-11-19T02:28:41.156Z,100.00
2022-11-19T02:31:34.070Z,100.00
2022-11-19T02:34:11.568Z,100.00
2022-11-19T02:37:02.436Z,100.00
2022-11-19T02:39:38.734Z,100.00
2022-11-19T02:42:18.275Z,100.00
2022-11-19T02:45:02.180Z,100.00
2022-11-19T02:47:31.459Z,100.00
2022-11-19T02:50:04.652Z,100.00
2022-11-19T02:52:32.513Z,100.00
2022-11-19T02:54:59.084Z,100.00
2022-11-19T02:57:25.735Z,100.00
2022-11-19T03:00:20.293Z,100.00
2022-11-19T03:03:31.218Z,100.00
2022-11-19T03:06:02.128Z,100.00
2022-11-19T03:08:28.888Z,100.00
2022-11-19T03:11:02.766Z,100.00
2022-11-19T03:14:29.623Z,100.00
2022-11-19T03:17:03.818Z,100.00
2022-11-19T03:19:44.434Z,100.00
2022-11-19T03:22:23.254Z,100.00
2022-11-19T03:25:06.138Z,100.00
2022-11-19T03:27:49.723Z,100.00
2022-11-19T03:30:18.287Z,100.00
2022-11-19T03:32:54.110Z,100.00
2022-11-19T03:35:29.219Z,100.00
2022-11-19T03:38:02.521Z,100.00
2022-11-19T03:40:31.823Z,100.00
2022-11-19T03:43:02.077Z,100.00
2022-11-19T03:45:32.566Z,100.00
2022-11-19T03:48:02.517Z,100.00
2022-11-19T03:50:58.547Z,100.00
2022-11-19T03:53:26.259Z,100.00
2022-11-19T03:55:58.639Z,100.00
2022-11-19T03:58:26.426Z,100.00
2022-11-19T04:00:53.353Z,100.00
2022-11-19T04:03:20.466Z,100.00
2022-11-19T04:05:47.215Z,100.00
2022-11-19T04:08:13.833Z,100.00
2022-11-19T04:10:40.442Z,100.00
2022-11-19T04:13:07.016Z,100.00
2022-11-19T04:15:33.614Z,100.00
2022-11-19T04:18:00.207Z,100.00
2022-11-19T04:20:26.904Z,100.00
2022-11-19T04:22:53.491Z,100.00
2022-11-19T04:25:20.134Z,100.00
2022-11-19T04:27:51.325Z,100.00
2022-11-19T04:30:18.119Z,100.00
2022-11-19T04:32:44.693Z,100.00
2022-11-19T04:35:11.634Z,100.00
2022-11-19T04:37:38.314Z,100.00
2022-11-19T04:40:05.459Z,100.00
2022-11-19T04:42:32.093Z,100.00
2022-11-19T04:44:58.862Z,100.00
2022-11-19T04:47:25.439Z,100.00
2022-11-19T04:49:52.029Z,99.57
2022-11-19T04:52:18.608Z,99.31
2022-11-19T04:54:45.214Z,99.88
2022-11-19T04:57:11.799Z,100.00
2022-11-19T04:59:38.610Z,100.00
2022-11-19T05:02:05.279Z,100.00
2022-11-19T05:04:31.874Z,99.17
2022-11-19T05:06:58.524Z,99.18
2022-11-19T05:09:25.152Z,99.92
2022-11-19T05:11:51.766Z,99.30
2022-11-19T05:14:18.368Z,100.00
2022-11-19T05:16:44.969Z,99.21
2022-11-19T05:19:11.755Z,100.00
2022-11-19T05:21:38.371Z,99.37
2022-11-19T05:24:05.260Z,98.24
2022-11-19T05:26:32.232Z,100.00
2022-11-19T05:28:58.781Z,99.13
2022-11-19T05:31:25.391Z,98.38
2022-11-19T05:33:52.019Z,97.89
2022-11-19T05:36:18.667Z,98.07
2022-11-19T05:38:45.295Z,99.70
2022-11-19T05:41:11.919Z,100.00
2022-11-19T05:43:38.481Z,100.00
2022-11-19T05:46:05.206Z,98.95
2022-11-19T05:48:31.902Z,98.91
2022-11-19T05:50:58.546Z,99.89
2022-11-19T05:53:25.188Z,100.00
2022-11-19T05:55:51.786Z,100.00
2022-11-19T05:58:18.480Z,100.00
2022-11-19T06:00:45.083Z,100.00
2022-11-19T06:03:11.758Z,100.00
2022-11-19T06:05:40.496Z,100.00
2022-11-19T06:08:07.745Z,100.00
2022-11-19T06:10:34.410Z,100.00
2022-11-19T06:13:01.622Z,100.00
2022-11-19T06:15:28.252Z,100.00
2022-11-19T06:17:56.431Z,100.00
2022-11-19T06:20:29.238Z,100.00
2022-11-19T06:22:56.018Z,100.00
2022-11-19T06:25:22.599Z,100.00
2022-11-19T06:27:49.318Z,100.00
2022-11-19T06:30:16.271Z,100.00
2022-11-19T06:32:43.973Z,100.00
2022-11-19T06:35:10.755Z,100.00
2022-11-19T06:37:37.466Z,100.00
2022-11-19T06:40:04.627Z,100.00
2022-11-19T06:42:37.325Z,100.00
2022-11-19T06:45:09.610Z,100.00
2022-11-19T06:47:36.990Z,100.00
2022-11-19T06:50:04.732Z,100.00
2022-11-19T06:52:31.414Z,100.00
2022-11-19T06:54:58.041Z,100.00
2022-11-19T06:57:24.914Z,100.00
2022-11-19T06:59:51.517Z,100.00
2022-11-19T07:02:21.456Z,100.00
2022-11-19T07:04:48.702Z,100.00
2022-11-19T07:07:15.407Z,100.00
2022-11-19T07:09:42.037Z,100.00
2022-11-19T07:12:08.883Z,100.00
2022-11-19T07:14:35.959Z,100.00
2022-11-19T07:17:03.092Z,100.00
2022-11-19T07:19:29.695Z,100.00
2022-11-19T07:21:56.335Z,100.00
2022-11-19T07:24:22.938Z,100.00
2022-11-19T07:26:49.622Z,100.00
2022-11-19T07:29:16.360Z,100.00
2022-11-19T07:31:42.989Z,100.00
2022-11-19T07:34:10.896Z,100.00
2022-11-19T07:36:37.887Z,100.00
2022-11-19T07:39:05.596Z,100.00
2022-11-19T07:41:50.820Z,100.00
2022-11-19T07:44:17.795Z,100.00
2022-11-19T07:46:44.491Z,100.00
2022-11-19T07:49:11.760Z,100.00
2022-11-19T07:51:38.370Z,100.00
2022-11-19T07:54:05.295Z,100.00
2022-11-19T07:56:31.961Z,100.00
2022-11-19T07:59:01.471Z,100.00
2022-11-19T08:01:28.260Z,100.00
2022-11-19T08:03:56.734Z,100.00
2022-11-19T08:06:26.460Z,100.00
2022-11-19T08:08:54.990Z,100.00
2022-11-19T08:11:21.695Z,100.00
2022-11-19T08:13:48.581Z,100.00
2022-11-19T08:16:36.766Z,100.00
2022-11-19T08:19:09.953Z,100.00
2022-11-19T08:21:40.927Z,100.00
2022-11-19T08:24:08.799Z,100.00
2022-11-19T08:26:35.989Z,100.00
2022-11-19T08:29:02.713Z,100.00
2022-11-19T08:31:29.379Z,100.00
2022-11-19T08:33:56.021Z,100.00
2022-11-19T08:36:22.866Z,100.00
2022-11-19T08:38:49.674Z,100.00
2022-11-19T08:41:34.681Z,100.00
2022-11-19T08:44:04.065Z,100.00
2022-11-19T08:46:30.651Z,100.00
2022-11-19T08:48:57.260Z,100.00
2022-11-19T08:51:23.906Z,100.00
2022-11-19T08:53:53.457Z,100.00
2022-11-19T08:56:20.873Z,100.00
2022-11-19T08:58:48.442Z,100.00
2022-11-19T09:01:18.663Z,100.00
2022-11-19T09:03:45.483Z,100.00
2022-11-19T09:06:12.952Z,100.00
2022-11-19T09:08:40.193Z,100.00
2022-11-19T09:11:08.755Z,100.00
2022-11-19T09:13:35.789Z,100.00
2022-11-19T09:16:02.604Z,100.00
2022-11-19T09:18:29.303Z,100.00
2022-11-19T09:20:57.126Z,100.00
2022-11-19T09:23:25.696Z,100.00
2022-11-19T09:26:09.643Z,100.00
2022-11-19T09:28:36.377Z,100.00
2022-11-19T09:31:13.007Z,100.00
2022-11-19T09:33:44.295Z,100.00
2022-11-19T09:36:11.974Z,100.00
2022-11-19T09:38:39.897Z,100.00
2022-11-19T09:41:21.742Z,100.00
2022-11-19T09:43:57.229Z,100.00
2022-11-19T09:46:30.051Z,100.00
2022-11-19T09:49:03.509Z,100.00
2022-11-19T09:51:33.491Z,100.00
2022-11-19T09:54:14.913Z,100.00
2022-11-19T09:56:44.536Z,100.00
2022-11-19T09:59:20.763Z,100.00
2022-11-19T10:01:47.413Z,100.00
2022-11-19T10:04:14.352Z,100.00
2022-11-19T10:07:06.707Z,100.00
2022-11-19T10:10:11.888Z,100.00
2022-11-19T10:13:13.364Z,100.00
2022-11-19T10:16:02.201Z,100.00
2022-11-19T10:19:07.413Z,100.00
2022-11-19T10:21:44.184Z,100.00
2022-11-19T10:24:18.450Z,100.00
2022-11-19T10:26:55.091Z,100.00
2022-11-19T10:29:24.787Z,100.00
2022-11-19T10:31:51.806Z,100.00
2022-11-19T10:34:37.965Z,100.00
2022-11-19T10:37:15.477Z,100.00
2022-11-19T10:39:48.614Z,100.00
2022-11-19T10:42:24.461Z,100.00
2022-11-19T10:45:03.410Z,100.00
2022-11-19T10:48:14.423Z,100.00
2022-11-19T10:50:42.338Z,100.00
2022-11-19T10:53:28.517Z,100.00
2022-11-19T10:56:01.275Z,100.00
2022-11-19T10:58:38.318Z,100.00
2022-11-19T11:01:16.024Z,100.00
2022-11-19T11:03:50.317Z,100.00
2022-11-19T11:06:16.899Z,100.00
2022-11-19T11:08:51.980Z,100.00
2022-11-19T11:11:50.374Z,100.00
2022-11-19T11:14:38.436Z,100.00
2022-11-19T11:17:16.462Z,100.00
2022-11-19T11:19:43.463Z,100.00
2022-11-19T11:22:10.057Z,100.00
2022-11-19T11:24:38.906Z,99.95
2022-11-19T11:27:18.887Z,100.00
2022-11-19T11:29:45.603Z,99.50
2022-11-19T11:32:30.869Z,99.16
2022-11-19T11:35:00.308Z,100.00
2022-11-19T11:37:30.252Z,100.00
2022-11-19T11:39:58.483Z,100.00
2022-11-19T11:42:28.684Z,100.00
2022-11-19T11:44:58.982Z,100.00
2022-11-19T11:47:32.130Z,100.00
2022-11-19T11:50:14.847Z,100.00
2022-11-19T11:52:46.201Z,100.00
2022-11-19T11:55:17.258Z,100.00
2022-11-19T11:57:55.636Z,100.00
2022-11-19T12:00:38.854Z,100.00
2022-11-19T12:03:06.858Z,100.00
2022-11-19T12:06:07.025Z,100.00
2022-11-19T12:08:48.529Z,100.00
2022-11-19T12:11:56.474Z,100.00
2022-11-19T12:14:35.035Z,100.00
2022-11-19T12:17:17.456Z,100.00
2022-11-19T12:20:13.009Z,100.00
2022-11-19T12:23:16.604Z,100.00
2022-11-19T12:25:49.127Z,100.00
2022-11-19T12:28:49.419Z,100.00
2022-11-19T12:31:40.156Z,100.00
2022-11-19T12:34:22.212Z,100.00
2022-11-19T12:37:13.790Z,100.00
2022-11-19T12:39:55.813Z,100.00
2022-11-19T12:42:37.757Z,100.00
2022-11-19T12:45:48.363Z,100.00
2022-11-19T12:48:37.663Z,100.00
2022-11-19T12:51:19.543Z,100.00
2022-11-19T12:53:52.257Z,100.00
2022-11-19T12:56:27.555Z,100.00
2022-11-19T12:59:21.819Z,100.00
2022-11-19T13:01:52.384Z,100.00
2022-11-19T13:04:32.975Z,100.00
2022-11-19T13:07:06.578Z,100.00
2022-11-19T13:09:50.683Z,100.00
2022-11-19T13:12:21.778Z,100.00
2022-11-19T13:14:58.257Z,100.00
2022-11-19T13:17:30.754Z,100.00
2022-11-19T13:20:17.616Z,100.00
2022-11-19T13:22:47.319Z,100.00
2022-11-19T13:25:22.553Z,100.00
2022-11-19T13:27:51.361Z,100.00
2022-11-19T13:30:26.929Z,100.00
2022-11-19T13:33:18.422Z,100.00
2022-11-19T13:36:03.588Z,100.00
2022-11-19T13:38:55.123Z,100.00
2022-11-19T13:41:26.884Z,100.00
2022-11-19T13:44:14.659Z,100.00
2022-11-19T13:46:46.122Z,100.00
2022-11-19T13:49:32.568Z,100.00
2022-11-19T13:52:07.041Z,100.00
2022-11-19T13:54:38.980Z,100.00
2022-11-19T13:57:08.320Z,100.00
2022-11-19T13:59:42.851Z,100.00
2022-11-19T14:02:34.363Z,100.00
2022-11-19T14:05:28.786Z,100.00
2022-11-19T14:08:07.483Z,100.00
2022-11-19T14:10:44.873Z,100.00
2022-11-19T14:14:01.282Z,100.00
2022-11-19T14:17:00.665Z,100.00
2022-11-19T14:19:45.872Z,100.00
2022-11-19T14:22:59.352Z,100.00
2022-11-19T14:26:15.169Z,100.00
2022-11-19T14:28:50.618Z,100.00
2022-11-19T14:31:20.183Z,100.00
2022-11-19T14:33:46.729Z,100.00
2022-11-19T14:36:41.504Z,100.00
2022-11-19T14:39:20.820Z,100.00
2022-11-19T14:41:47.538Z,100.00
2022-11-19T14:44:26.382Z,100.00
2022-11-19T14:46:53.041Z,100.00
2022-11-19T14:49:23.512Z,100.00
2022-11-19T14:51:54.249Z,100.00
2022-11-19T14:54:38.896Z,100.00
2022-11-19T14:57:14.713Z,100.00
2022-11-19T14:59:47.329Z,100.00
2022-11-19T15:02:31.161Z,100.00
2022-11-19T15:05:03.351Z,100.00
2022-11-19T15:07:33.103Z,100.00
2022-11-19T15:10:14.753Z,100.00
2022-11-19T15:12:44.211Z,100.00
2022-11-19T15:15:19.510Z,100.00
2022-11-19T15:18:02.433Z,100.00
2022-11-19T15:20:47.546Z,100.00
2022-11-19T15:23:16.842Z,100.00
2022-11-19T15:26:06.862Z,100.00
2022-11-19T15:28:58.125Z,100.00
2022-11-19T15:31:54.851Z,100.00
2022-11-19T15:35:03.794Z,100.00
2022-11-19T15:37:44.019Z,100.00
2022-11-19T15:40:24.846Z,100.00
2022-11-19T15:43:01.895Z,100.00
2022-11-19T15:45:36.830Z,100.00
2022-11-19T15:48:14.066Z,100.00
2022-11-19T15:50:44.375Z,100.00
2022-11-19T15:53:17.950Z,100.00
2022-11-19T15:56:03.847Z,100.00
2022-11-19T15:58:38.408Z,100.00
2022-11-19T16:01:08.962Z,100.00
2022-11-19T16:03:39.244Z,100.00
2022-11-19T16:06:08.426Z,100.00
2022-11-19T16:08:35.540Z,100.00
2022-11-19T16:11:23.101Z,100.00
2022-11-19T16:14:10.818Z,100.00
2022-11-19T16:16:57.683Z,100.00
2022-11-19T16:19:24.563Z,100.00
2022-11-19T16:21:55.447Z,100.00
2022-11-19T16:24:44.394Z,100.00
2022-11-19T16:27:13.166Z,100.00
2022-11-19T16:29:42.707Z,100.00
2022-11-19T16:32:16.929Z,100.00
2022-11-19T16:34:43.962Z,100.00
2022-11-19T16:37:13.621Z,100.00
2022-11-19T16:39:42.048Z,100.00
2022-11-19T16:42:18.426Z,100.00
2022-11-19T16:45:14.667Z,100.00
2022-11-19T16:47:54.640Z,100.00
2022-11-19T16:50:27.052Z,100.00
2022-11-19T16:52:54.879Z,100.00
2022-11-19T16:55:24.352Z,100.00
2022-11-19T16:57:54.336Z,100.00
2022-11-19T17:00:23.408Z,100.00
2022-11-19T17:02:51.288Z,100.00
2022-11-19T17:05:21.781Z,100.00
2022-11-19T17:07:52.518Z,100.00
2022-11-19T17:10:24.225Z,100.00
2022-11-19T17:12:54.252Z,100.00
2022-11-19T17:15:42.656Z,100.00
2022-11-19T17:18:15.041Z,100.00
2022-11-19T17:20:44.369Z,100.00
2022-11-19T17:23:17.636Z,100.00
2022-11-19T17:26:03.548Z,100.00
2022-11-19T17:28:45.466Z,100.00
2022-11-19T17:31:22.868Z,100.00
2022-11-19T17:34:09.654Z,100.00
2022-11-19T17:36:36.570Z,100.00
2022-11-19T17:39:10.022Z,100.00
2022-11-19T17:41:55.275Z,100.00
2022-11-19T17:44:34.841Z,100.00
2022-11-19T17:47:20.779Z,100.00
2022-11-19T17:49:48.694Z,100.00
2022-11-19T17:52:29.374Z,100.00
2022-11-19T17:54:59.016Z,100.00
2022-11-19T17:57:25.627Z,100.00
2022-11-19T17:59:53.475Z,100.00
2022-11-19T18:02:21.242Z,100.00
2022-11-19T18:04:48.766Z,100.00
2022-11-19T18:07:15.748Z,100.00
2022-11-19T18:09:42.463Z,100.00
2022-11-19T18:12:17.651Z,100.00
2022-11-19T18:14:45.150Z,100.00
2022-11-19T18:17:14.287Z,100.00
2022-11-19T18:19:43.491Z,100.00
2022-11-19T18:22:19.927Z,100.00
2022-11-19T18:24:48.695Z,100.00
2022-11-19T18:27:16.290Z,100.00
2022-11-19T18:29:42.861Z,100.00
2022-11-19T18:32:15.965Z,100.00
2022-11-19T18:34:44.161Z,100.00
2022-11-19T18:37:11.601Z,100.00
2022-11-19T18:39:38.375Z,100.00
2022-11-19T18:42:05.012Z,100.00
2022-11-19T18:44:34.424Z,100.00
2022-11-19T18:47:10.226Z,100.00
2022-11-19T18:49:37.771Z,100.00
2022-11-19T18:52:06.847Z,100.00
2022-11-19T18:54:34.000Z,100.00
2022-11-19T18:57:01.121Z,100.00
2022-11-19T18:59:28.050Z,100.00
2022-11-19T19:01:55.804Z,100.00
2022-11-19T19:04:23.270Z,100.00
2022-11-19T19:06:50.279Z,100.00
2022-11-19T19:09:20.429Z,100.00
2022-11-19T19:12:12.270Z,100.00
2022-11-19T19:14:39.904Z,100.00
2022-11-19T19:17:06.499Z,100.00
2022-11-19T19:19:33.233Z,100.00
2022-11-19T19:22:00.458Z,100.00
2022-11-19T19:24:27.121Z,100.00
2022-11-19T19:26:53.783Z,100.00
2022-11-19T19:29:20.661Z,100.00
2022-11-19T19:31:47.638Z,100.00
2022-11-19T19:34:14.300Z,100.00
2022-11-19T19:36:40.896Z,100.00
2022-11-19T19:39:07.585Z,100.00
2022-11-19T19:41:34.647Z,100.00
2022-11-19T19:44:03.430Z,100.00
2022-11-19T19:46:31.561Z,100.00
2022-11-19T19:48:58.979Z,100.00
2022-11-19T19:51:29.694Z,100.00
2022-11-19T19:53:57.320Z,100.00
2022-11-19T19:56:29.414Z,100.00
2022-11-19T19:58:56.968Z,100.00
2022-11-19T20:01:29.734Z,100.00
2022-11-19T20:04:06.737Z,100.00
2022-11-19T20:06:34.493Z,100.00
2022-11-19T20:09:07.912Z,100.00
2022-11-19T20:11:35.500Z,100.00
2022-11-19T20:14:02.327Z,100.00
2022-11-19T20:16:30.905Z,100.00
2022-11-19T20:18:59.491Z,100.00
2022-11-19T20:21:28.725Z,100.00
2022-11-19T20:23:55.661Z,100.00
2022-11-19T20:26:25.270Z,100.00
2022-11-19T20:29:02.776Z,100.00
2022-11-19T20:31:30.743Z,100.00
2022-11-19T20:34:03.288Z,100.00
2022-11-19T20:36:33.330Z,100.00
2022-11-19T20:39:00.650Z,100.00
2022-11-19T20:41:46.923Z,100.00
2022-11-19T20:44:21.017Z,100.00
2022-11-19T20:46:52.285Z,100.00
2022-11-19T20:49:21.384Z,100.00
2022-11-19T20:51:48.839Z,100.00
2022-11-19T20:54:15.757Z,100.00
2022-11-19T20:56:42.627Z,100.00
2022-11-19T20:59:09.810Z,100.00
2022-11-19T21:01:37.259Z,100.00
2022-11-19T21:04:04.895Z,100.00
2022-11-19T21:06:31.719Z,100.00
2022-11-19T21:08:58.411Z,100.00
2022-11-19T21:11:25.399Z,100.00
2022-11-19T21:13:52.019Z,100.00
2022-11-19T21:16:21.595Z,100.00
2022-11-19T21:18:48.711Z,100.00
2022-11-19T21:21:17.153Z,100.00
2022-11-19T21:23:44.479Z,100.00
2022-11-19T21:26:16.247Z,100.00
2022-11-19T21:28:47.602Z,100.00
2022-11-19T21:31:16.228Z,100.00
2022-11-19T21:33:43.072Z,100.00
2022-11-19T21:36:10.495Z,100.00
2022-11-19T21:38:37.071Z,100.00
2022-11-19T21:41:05.409Z,100.00
2022-11-19T21:43:32.535Z,100.00
2022-11-19T21:45:59.325Z,100.00
2022-11-19T21:48:26.270Z,100.00
2022-11-19T21:50:54.702Z,100.00
2022-11-19T21:53:22.236Z,100.00
2022-11-19T21:55:49.964Z,100.00
2022-11-19T21:58:17.151Z,100.00
2022-11-19T22:00:47.565Z,100.00
2022-11-19T22:03:15.856Z,100.00
2022-11-19T22:05:43.474Z,100.00
2022-11-19T22:08:10.333Z,100.00
2022-11-19T22:10:42.777Z,100.00
2022-11-19T22:13:12.281Z,100.00
2022-11-19T22:15:39.465Z,100.00
2022-11-19T22:18:06.410Z,100.00
2022-11-19T22:20:33.204Z,100.00
2022-11-19T22:23:00.010Z,100.00
2022-11-19T22:25:28.087Z,100.00
2022-11-19T22:27:55.337Z,100.00
2022-11-19T22:30:22.164Z,100.00
2022-11-19T22:32:49.033Z,100.00
2022-11-19T22:35:16.692Z,100.00
2022-11-19T22:37:43.492Z,100.00
2022-11-19T22:40:10.658Z,100.00
2022-11-19T22:42:37.238Z,100.00
2022-11-19T22:45:04.849Z,100.00
2022-11-19T22:47:31.684Z,100.00
2022-11-19T22:49:58.242Z,100.00
2022-11-19T22:52:25.096Z,100.00
2022-11-19T22:54:53.113Z,100.00
2022-11-19T22:57:20.220Z,100.00
2022-11-19T22:59:48.438Z,100.00
2022-11-19T23:02:15.483Z,100.00
2022-11-19T23:04:42.142Z,100.00
2022-11-19T23:07:09.140Z,100.00
2022-11-19T23:09:36.609Z,100.00
2022-11-19T23:12:22.246Z,100.00
2022-11-19T23:14:48.819Z,100.00
2022-11-19T23:17:16.015Z,100.00
2022-11-19T23:19:43.404Z,100.00
2022-11-19T23:22:10.022Z,100.00
2022-11-19T23:24:36.608Z,100.00
2022-11-19T23:27:03.342Z,100.00
2022-11-19T23:29:29.904Z,100.00
2022-11-19T23:31:56.508Z,100.00
2022-11-19T23:34:23.096Z,100.00
2022-11-19T23:36:49.711Z,100.00
2022-11-19T23:39:17.966Z,100.00
2022-11-19T23:41:45.226Z,100.00
2022-11-19T23:44:12.298Z,100.00
2022-11-19T23:46:38.990Z,100.00
2022-11-19T23:49:06.006Z,100.00
2022-11-19T23:51:35.391Z,100.00
2022-11-19T23:54:02.404Z,100.00
2022-11-19T23:56:31.090Z,100.00
2022-11-19T23:58:59.484Z,100.00
